createdAt,value
2018-12-15T00:02:07.575Z,0.00
2018-12-15T00:04:35.103Z,0.00
2018-12-15T00:07:02.631Z,0.00
2018-12-15T00:09:30.155Z,0.00
2018-12-15T00:11:57.692Z,0.00
2018-12-15T00:14:25.234Z,0.00
2018-12-15T00:16:52.753Z,0.00
2018-12-15T00:19:20.279Z,0.00
2018-12-15T00:21:47.800Z,0.00
2018-12-15T00:24:15.320Z,0.00
2018-12-15T00:26:42.863Z,0.00
2018-12-15T00:29:10.392Z,0.00
2018-12-15T00:31:37.950Z,0.00
2018-12-15T00:34:05.481Z,0.00
2018-12-15T00:36:33.015Z,0.00
2018-12-15T00:39:00.514Z,0.00
2018-12-15T00:41:28.044Z,0.00
2018-12-15T00:43:55.608Z,0.00
2018-12-15T00:46:23.116Z,0.00
2018-12-15T00:48:50.674Z,0.00
2018-12-15T00:51:18.207Z,0.00
2018-12-15T00:53:45.723Z,0.00
2018-12-15T00:56:13.237Z,0.00
2018-12-15T00:58:40.763Z,0.00
2018-12-15T01:01:08.359Z,0.00
2018-12-15T01:03:35.887Z,0.00
2018-12-15T01:06:03.421Z,0.00
2018-12-15T01:08:31.052Z,0.00
2018-12-15T01:10:59.645Z,0.00
2018-12-15T01:13:27.173Z,0.00
2018-12-15T01:15:54.682Z,0.00
2018-12-15T01:18:22.205Z,0.00
2018-12-15T01:20:49.719Z,0.00
2018-12-15T01:23:17.248Z,0.00
2018-12-15T01:25:44.767Z,0.00
2018-12-15T01:28:12.273Z,0.00
2018-12-15T01:30:39.795Z,0.00
2018-12-15T01:33:07.344Z,0.00
2018-12-15T01:35:34.882Z,0.00
2018-12-15T01:38:02.677Z,0.00
2018-12-15T01:40:30.199Z,0.10
2018-12-15T01:42:57.725Z,0.10
2018-12-15T01:45:25.273Z,0.00
2018-12-15T01:47:52.795Z,0.10
2018-12-15T01:50:20.329Z,0.10
2018-12-15T01:52:47.868Z,0.10
2018-12-15T01:55:15.402Z,0.10
2018-12-15T01:57:42.937Z,0.10
2018-12-15T02:00:10.773Z,0.10
2018-12-15T02:02:38.299Z,0.10
2018-12-15T02:05:05.826Z,0.10
2018-12-15T02:07:33.371Z,0.00
2018-12-15T02:10:00.892Z,0.00
2018-12-15T02:12:28.431Z,0.00
2018-12-15T02:14:55.987Z,0.00
2018-12-15T02:17:23.519Z,0.00
2018-12-15T02:19:51.160Z,0.00
2018-12-15T02:22:18.693Z,0.00
2018-12-15T02:24:46.215Z,0.00
2018-12-15T02:27:13.753Z,0.00
2018-12-15T02:29:41.291Z,0.00
2018-12-15T02:32:09.060Z,0.10
2018-12-15T02:34:36.583Z,0.10
2018-12-15T02:37:04.108Z,0.10
2018-12-15T02:39:31.649Z,0.00
2018-12-15T02:41:59.181Z,0.00
2018-12-15T02:44:26.708Z,0.00
2018-12-15T02:46:54.248Z,0.00
2018-12-15T02:49:21.779Z,0.00
2018-12-15T02:51:49.313Z,0.00
2018-12-15T02:54:16.891Z,0.00
2018-12-15T02:56:44.420Z,0.00
2018-12-15T02:59:11.929Z,0.00
2018-12-15T03:01:39.453Z,0.00
2018-12-15T03:04:06.983Z,0.00
2018-12-15T03:06:34.515Z,0.00
2018-12-15T03:09:02.041Z,0.00
2018-12-15T03:11:29.809Z,0.00
2018-12-15T03:13:57.331Z,0.00
2018-12-15T03:16:24.856Z,0.00
2018-12-15T03:18:52.664Z,0.00
2018-12-15T03:21:20.188Z,0.00
2018-12-15T03:23:47.718Z,0.00
2018-12-15T03:26:15.240Z,0.00
2018-12-15T03:28:42.772Z,0.00
2018-12-15T03:31:10.317Z,0.00
2018-12-15T03:33:37.853Z,0.00
2018-12-15T03:36:05.401Z,0.00
2018-12-15T03:38:32.926Z,0.00
2018-12-15T03:41:00.473Z,0.00
2018-12-15T03:43:28.013Z,0.00
2018-12-15T03:45:55.558Z,0.00
2018-12-15T03:48:23.420Z,0.00
2018-12-15T03:50:50.933Z,0.00
2018-12-15T03:53:18.452Z,0.00
2018-12-15T03:55:46.000Z,0.00
2018-12-15T03:58:13.633Z,0.00
2018-12-15T04:00:41.175Z,0.00
2018-12-15T04:03:08.711Z,0.00
2018-12-15T04:05:36.225Z,0.00
2018-12-15T04:08:03.747Z,0.00
2018-12-15T04:10:31.288Z,0.00
2018-12-15T04:12:58.825Z,0.00
2018-12-15T04:15:26.379Z,0.00
2018-12-15T04:17:53.916Z,0.00
2018-12-15T04:20:21.697Z,0.00
2018-12-15T04:22:49.223Z,0.00
2018-12-15T04:25:16.743Z,0.00
2018-12-15T04:27:44.262Z,0.00
2018-12-15T04:30:11.825Z,0.00
2018-12-15T04:32:45.121Z,0.00
2018-12-15T04:35:08.928Z,0.00
2018-12-15T04:37:36.456Z,0.00
2018-12-15T04:40:06.077Z,0.00
2018-12-15T04:42:33.614Z,0.00
2018-12-15T04:45:01.152Z,0.00
2018-12-15T04:47:28.917Z,0.00
2018-12-15T04:49:56.562Z,0.00
2018-12-15T04:52:24.094Z,0.00
2018-12-15T04:54:51.650Z,0.00
2018-12-15T04:57:19.264Z,0.00
2018-12-15T04:59:46.782Z,0.00
2018-12-15T05:02:14.311Z,0.00
2018-12-15T05:04:41.833Z,0.00
2018-12-15T05:07:09.367Z,0.00
2018-12-15T05:09:36.889Z,0.00
2018-12-15T05:12:04.414Z,0.00
2018-12-15T05:14:31.948Z,0.00
2018-12-15T05:16:59.471Z,0.00
2018-12-15T05:19:27.020Z,0.00
2018-12-15T05:21:54.556Z,0.00
2018-12-15T05:24:22.085Z,0.00
2018-12-15T05:26:49.619Z,0.00
2018-12-15T05:29:17.154Z,0.00
2018-12-15T05:31:44.712Z,0.00
2018-12-15T05:34:12.258Z,0.10
2018-12-15T05:36:39.799Z,0.00
2018-12-15T05:39:07.322Z,0.10
2018-12-15T05:41:34.847Z,0.10
2018-12-15T05:44:02.375Z,0.10
2018-12-15T05:46:29.882Z,0.00
2018-12-15T05:48:57.404Z,0.10
2018-12-15T05:51:24.942Z,0.10
2018-12-15T05:53:52.478Z,0.10
2018-12-15T05:56:19.986Z,0.10
2018-12-15T05:58:47.526Z,0.10
2018-12-15T06:01:15.051Z,0.10
2018-12-15T06:03:42.592Z,0.10
2018-12-15T06:06:10.128Z,0.10
2018-12-15T06:08:37.657Z,0.10
2018-12-15T06:11:05.172Z,0.10
2018-12-15T06:13:32.701Z,0.00
2018-12-15T06:16:00.243Z,0.10
2018-12-15T06:18:31.634Z,0.10
2018-12-15T06:20:57.772Z,0.10
2018-12-15T06:23:25.285Z,0.10
2018-12-15T06:25:52.826Z,0.10
2018-12-15T06:28:20.351Z,0.10
2018-12-15T06:30:47.871Z,0.10
2018-12-15T06:33:15.411Z,0.10
2018-12-15T06:35:42.958Z,0.10
2018-12-15T06:38:10.493Z,0.10
2018-12-15T06:40:38.025Z,0.10
2018-12-15T06:43:05.555Z,0.10
2018-12-15T06:45:33.088Z,0.10
2018-12-15T06:48:00.601Z,0.10
2018-12-15T06:50:28.130Z,0.10
2018-12-15T06:52:55.681Z,0.10
2018-12-15T06:55:23.250Z,0.10
2018-12-15T06:57:50.785Z,0.10
2018-12-15T07:00:18.303Z,0.10
2018-12-15T07:02:45.877Z,0.10
2018-12-15T07:05:13.411Z,0.00
2018-12-15T07:07:41.205Z,0.10
2018-12-15T07:10:08.847Z,0.10
2018-12-15T07:12:36.359Z,0.10
2018-12-15T07:15:04.807Z,0.10
2018-12-15T07:17:32.339Z,0.10
2018-12-15T07:19:59.856Z,0.10
2018-12-15T07:22:27.386Z,0.10
2018-12-15T07:24:54.905Z,0.10
2018-12-15T07:27:22.434Z,0.10
2018-12-15T07:29:49.945Z,0.10
2018-12-15T07:32:17.494Z,0.10
2018-12-15T07:34:45.150Z,0.10
2018-12-15T07:37:12.679Z,0.10
2018-12-15T07:39:40.225Z,0.10
2018-12-15T07:42:07.755Z,0.10
2018-12-15T07:44:35.291Z,0.10
2018-12-15T07:47:02.818Z,0.10
2018-12-15T07:49:30.352Z,0.10
2018-12-15T07:51:57.875Z,0.10
2018-12-15T07:54:25.403Z,0.10
2018-12-15T07:56:52.940Z,0.10
2018-12-15T07:59:20.491Z,0.10
2018-12-15T08:01:48.001Z,0.10
2018-12-15T08:04:15.532Z,0.10
2018-12-15T08:06:43.045Z,0.10
2018-12-15T08:09:10.591Z,0.10
2018-12-15T08:11:43.819Z,0.10
2018-12-15T08:14:11.744Z,0.20
2018-12-15T08:16:39.267Z,0.20
2018-12-15T08:19:06.775Z,0.10
2018-12-15T08:21:34.288Z,0.20
2018-12-15T08:24:01.833Z,0.10
2018-12-15T08:26:29.580Z,0.20
2018-12-15T08:28:57.113Z,0.20
2018-12-15T08:31:24.627Z,0.20
2018-12-15T08:33:52.155Z,0.20
2018-12-15T08:36:19.670Z,0.20
2018-12-15T08:38:47.193Z,0.20
2018-12-15T08:41:14.715Z,0.20
2018-12-15T08:43:42.286Z,0.20
2018-12-15T08:46:11.829Z,0.20
2018-12-15T08:48:39.359Z,0.20
2018-12-15T08:51:06.910Z,0.20
2018-12-15T08:53:34.452Z,0.20
2018-12-15T08:56:01.994Z,0.20
2018-12-15T08:58:29.566Z,0.20
2018-12-15T09:00:57.095Z,0.20
2018-12-15T09:03:24.632Z,0.20
2018-12-15T09:05:52.159Z,0.20
2018-12-15T09:08:19.677Z,0.20
2018-12-15T09:10:47.207Z,0.30
2018-12-15T09:13:14.741Z,0.30
2018-12-15T09:15:42.281Z,0.30
2018-12-15T09:18:09.900Z,0.30
2018-12-15T09:20:37.476Z,0.30
2018-12-15T09:23:05.007Z,0.30
2018-12-15T09:25:32.654Z,0.30
2018-12-15T09:28:00.180Z,0.30
2018-12-15T09:30:27.726Z,0.30
2018-12-15T09:32:55.246Z,0.30
2018-12-15T09:35:22.776Z,0.30
2018-12-15T09:37:50.297Z,0.30
2018-12-15T09:40:17.844Z,0.30
2018-12-15T09:42:45.354Z,0.30
2018-12-15T09:45:13.008Z,0.30
2018-12-15T09:47:40.543Z,0.30
2018-12-15T09:50:08.053Z,0.30
2018-12-15T09:52:35.591Z,0.30
2018-12-15T09:55:03.309Z,0.40
2018-12-15T09:57:30.813Z,0.40
2018-12-15T09:59:58.349Z,0.40
2018-12-15T10:02:25.892Z,0.40
2018-12-15T10:04:53.427Z,0.40
2018-12-15T10:07:20.967Z,0.40
2018-12-15T10:09:48.502Z,0.40
2018-12-15T10:12:16.045Z,0.40
2018-12-15T10:14:43.889Z,0.40
2018-12-15T10:17:11.425Z,0.40
2018-12-15T10:19:39.028Z,0.40
2018-12-15T10:22:06.533Z,0.40
2018-12-15T10:24:34.056Z,0.40
2018-12-15T10:27:01.585Z,0.40
2018-12-15T10:29:34.893Z,0.40
2018-12-15T10:32:07.944Z,0.40
2018-12-15T10:34:35.490Z,0.40
2018-12-15T10:37:04.393Z,0.40
2018-12-15T10:39:32.183Z,0.40
2018-12-15T10:41:59.728Z,0.40
2018-12-15T10:44:27.330Z,0.40
2018-12-15T10:46:54.859Z,0.40
2018-12-15T10:49:22.394Z,0.40
2018-12-15T10:51:49.897Z,0.40
2018-12-15T10:54:17.445Z,0.40
2018-12-15T10:56:44.983Z,0.40
2018-12-15T10:59:12.494Z,0.40
2018-12-15T11:01:40.023Z,0.40
2018-12-15T11:04:07.561Z,0.50
2018-12-15T11:06:35.092Z,0.50
2018-12-15T11:09:02.738Z,0.50
2018-12-15T11:11:30.256Z,0.50
2018-12-15T11:13:57.798Z,0.50
2018-12-15T11:16:25.310Z,0.60
2018-12-15T11:18:52.854Z,0.60
2018-12-15T11:21:20.361Z,0.60
2018-12-15T11:23:48.859Z,0.60
2018-12-15T11:26:16.379Z,0.60
2018-12-15T11:28:44.669Z,0.60
2018-12-15T11:31:12.200Z,0.60
2018-12-15T11:33:39.720Z,0.60
2018-12-15T11:36:07.246Z,0.70
2018-12-15T11:38:34.780Z,0.60
2018-12-15T11:41:02.302Z,0.60
2018-12-15T11:43:29.845Z,0.60
2018-12-15T11:45:57.386Z,0.70
2018-12-15T11:48:25.006Z,0.70
2018-12-15T11:50:52.550Z,0.70
2018-12-15T11:53:20.086Z,0.70
2018-12-15T11:55:47.607Z,0.70
2018-12-15T11:58:15.150Z,0.70
2018-12-15T12:00:42.808Z,0.70
2018-12-15T12:03:10.332Z,0.70
2018-12-15T12:05:37.869Z,0.70
2018-12-15T12:08:05.386Z,0.70
2018-12-15T12:10:32.893Z,0.70
2018-12-15T12:13:00.405Z,0.70
2018-12-15T12:15:27.940Z,0.70
2018-12-15T12:17:55.455Z,0.70
2018-12-15T12:20:23.255Z,0.70
2018-12-15T12:22:50.775Z,0.70
2018-12-15T12:25:18.305Z,0.70
2018-12-15T12:27:45.848Z,0.70
2018-12-15T12:30:13.494Z,0.70
2018-12-15T12:32:41.009Z,0.70
2018-12-15T12:35:08.514Z,0.70
2018-12-15T12:37:36.151Z,0.70
2018-12-15T12:40:04.788Z,0.70
2018-12-15T12:42:32.307Z,0.70
2018-12-15T12:44:59.844Z,0.70
2018-12-15T12:47:27.367Z,0.70
2018-12-15T12:49:56.946Z,0.80
2018-12-15T12:52:24.457Z,0.80
2018-12-15T12:54:51.976Z,0.80
2018-12-15T12:57:19.494Z,0.80
2018-12-15T12:59:47.028Z,0.80
2018-12-15T13:02:14.564Z,0.70
2018-12-15T13:04:42.069Z,0.70
2018-12-15T13:07:09.590Z,0.70
2018-12-15T13:09:37.134Z,0.70
2018-12-15T13:12:04.798Z,0.70
2018-12-15T13:14:32.384Z,0.70
2018-12-15T13:16:59.915Z,0.70
2018-12-15T13:19:27.432Z,0.70
2018-12-15T13:21:54.951Z,0.70
2018-12-15T13:24:22.916Z,0.70
2018-12-15T13:26:50.446Z,0.70
2018-12-15T13:29:18.013Z,0.70
2018-12-15T13:31:45.561Z,0.70
2018-12-15T13:34:13.089Z,0.70
2018-12-15T13:36:40.713Z,0.70
2018-12-15T13:39:08.240Z,0.70
2018-12-15T13:41:35.768Z,0.60
2018-12-15T13:44:03.431Z,0.60
2018-12-15T13:46:31.024Z,0.70
2018-12-15T13:48:58.582Z,0.60
2018-12-15T13:51:26.116Z,0.70
2018-12-15T13:53:53.656Z,0.70
2018-12-15T13:56:21.200Z,0.60
2018-12-15T13:58:48.740Z,0.60
2018-12-15T14:01:16.267Z,0.60
2018-12-15T14:03:43.841Z,0.60
2018-12-15T14:06:11.386Z,0.60
2018-12-15T14:08:38.919Z,0.60
2018-12-15T14:11:06.441Z,0.60
2018-12-15T14:13:33.987Z,0.60
2018-12-15T14:16:01.542Z,0.60
2018-12-15T14:18:29.122Z,0.60
2018-12-15T14:20:56.643Z,0.60
2018-12-15T14:23:24.186Z,0.60
2018-12-15T14:25:51.704Z,0.60
2018-12-15T14:28:19.250Z,0.60
2018-12-15T14:30:46.777Z,0.60
2018-12-15T14:33:14.285Z,0.60
2018-12-15T14:35:41.834Z,0.60
2018-12-15T14:38:09.356Z,0.60
2018-12-15T14:40:36.909Z,0.60
2018-12-15T14:43:04.443Z,0.60
2018-12-15T14:45:31.971Z,0.60
2018-12-15T14:47:59.518Z,0.60
2018-12-15T14:50:27.026Z,0.60
2018-12-15T14:52:54.573Z,0.60
2018-12-15T14:55:22.092Z,0.50
2018-12-15T14:57:49.628Z,0.50
2018-12-15T15:00:17.177Z,0.50
2018-12-15T15:02:44.768Z,0.50
2018-12-15T15:05:12.567Z,0.50
2018-12-15T15:07:40.073Z,0.50
2018-12-15T15:10:07.798Z,0.50
2018-12-15T15:12:35.328Z,0.50
2018-12-15T15:15:03.239Z,0.40
2018-12-15T15:17:30.755Z,0.40
2018-12-15T15:19:58.287Z,0.40
2018-12-15T15:22:25.811Z,0.40
2018-12-15T15:24:53.349Z,0.40
2018-12-15T15:27:20.879Z,0.40
2018-12-15T15:29:48.415Z,0.40
2018-12-15T15:32:15.956Z,0.40
2018-12-15T15:34:43.462Z,0.40
2018-12-15T15:37:11.010Z,0.40
2018-12-15T15:39:38.540Z,0.40
2018-12-15T15:42:06.054Z,0.40
2018-12-15T15:44:33.579Z,0.40
2018-12-15T15:47:01.110Z,0.40
2018-12-15T15:49:28.654Z,0.40
2018-12-15T15:51:56.157Z,0.40
2018-12-15T15:54:23.675Z,0.40
2018-12-15T15:56:51.185Z,0.40
2018-12-15T15:59:18.734Z,0.40
2018-12-15T16:01:46.260Z,0.40
2018-12-15T16:04:13.794Z,0.40
2018-12-15T16:06:41.334Z,0.40
2018-12-15T16:09:08.861Z,0.40
2018-12-15T16:11:36.370Z,0.40
2018-12-15T16:14:04.002Z,0.40
2018-12-15T16:16:33.061Z,0.40
2018-12-15T16:19:00.588Z,0.40
2018-12-15T16:21:28.227Z,0.40
2018-12-15T16:23:55.769Z,0.40
2018-12-15T16:26:23.296Z,0.40
2018-12-15T16:28:50.817Z,0.40
2018-12-15T16:31:18.343Z,0.40
2018-12-15T16:33:45.887Z,0.40
2018-12-15T16:36:13.409Z,0.40
2018-12-15T16:38:40.935Z,0.40
2018-12-15T16:41:08.477Z,0.40
2018-12-15T16:43:37.067Z,0.40
2018-12-15T16:46:04.869Z,0.40
2018-12-15T16:48:32.411Z,0.40
2018-12-15T16:50:59.945Z,0.40
2018-12-15T16:53:27.468Z,0.40
2018-12-15T16:55:55.120Z,0.40
2018-12-15T16:58:22.635Z,0.40
2018-12-15T17:00:50.160Z,0.40
2018-12-15T17:03:17.683Z,0.40
2018-12-15T17:05:45.259Z,0.40
2018-12-15T17:08:12.806Z,0.40
2018-12-15T17:10:40.333Z,0.40
2018-12-15T17:13:07.859Z,0.40
2018-12-15T17:15:35.393Z,0.40
2018-12-15T17:18:02.943Z,0.40
2018-12-15T17:20:30.475Z,0.40
2018-12-15T17:22:58.003Z,0.40
2018-12-15T17:25:25.531Z,0.40
2018-12-15T17:27:53.044Z,0.40
2018-12-15T17:30:20.562Z,0.40
2018-12-15T17:32:48.080Z,0.40
2018-12-15T17:35:15.623Z,0.40
2018-12-15T17:37:43.153Z,0.40
2018-12-15T17:40:10.923Z,0.40
2018-12-15T17:42:38.545Z,0.40
2018-12-15T17:45:06.715Z,0.40
2018-12-15T17:47:34.250Z,0.40
2018-12-15T17:50:01.883Z,0.50
2018-12-15T17:52:29.387Z,0.50
2018-12-15T17:54:56.889Z,0.40
2018-12-15T17:57:24.424Z,0.40
2018-12-15T17:59:51.956Z,0.50
2018-12-15T18:02:19.580Z,0.50
2018-12-15T18:04:47.111Z,0.50
2018-12-15T18:07:14.658Z,0.50
2018-12-15T18:09:42.201Z,0.50
2018-12-15T18:12:09.742Z,0.50
2018-12-15T18:14:37.298Z,0.50
2018-12-15T18:17:04.830Z,0.50
2018-12-15T18:19:32.843Z,0.50
2018-12-15T18:22:00.369Z,0.50
2018-12-15T18:24:27.885Z,0.50
2018-12-15T18:26:55.401Z,0.50
2018-12-15T18:29:22.910Z,0.50
2018-12-15T18:31:50.456Z,0.50
2018-12-15T18:34:18.020Z,0.50
2018-12-15T18:36:45.613Z,0.50
2018-12-15T18:39:13.147Z,0.50
2018-12-15T18:41:40.718Z,0.50
2018-12-15T18:44:08.239Z,0.50
2018-12-15T18:46:35.785Z,0.60
2018-12-15T18:49:03.307Z,0.50
2018-12-15T18:51:30.846Z,0.60
2018-12-15T18:53:58.371Z,0.60
2018-12-15T18:56:25.907Z,0.60
2018-12-15T18:58:54.166Z,0.60
2018-12-15T19:01:21.717Z,0.60
2018-12-15T19:03:49.233Z,0.60
2018-12-15T19:06:16.768Z,0.60
2018-12-15T19:08:44.287Z,0.60
2018-12-15T19:11:11.827Z,0.60
2018-12-15T19:13:39.355Z,0.60
2018-12-15T19:16:06.873Z,0.60
2018-12-15T19:18:34.497Z,0.60
2018-12-15T19:21:02.131Z,0.60
2018-12-15T19:23:29.653Z,0.60
2018-12-15T19:25:57.347Z,0.60
2018-12-15T19:28:24.873Z,0.60
2018-12-15T19:30:52.409Z,0.60
2018-12-15T19:33:19.940Z,0.60
2018-12-15T19:35:47.567Z,0.60
2018-12-15T19:38:15.127Z,0.60
2018-12-15T19:40:42.751Z,0.60
2018-12-15T19:43:10.261Z,0.60
2018-12-15T19:45:37.807Z,0.60
2018-12-15T19:48:05.337Z,0.60
2018-12-15T19:50:32.892Z,0.70
2018-12-15T19:53:00.444Z,0.70
2018-12-15T19:55:28.072Z,0.70
2018-12-15T19:57:55.861Z,0.70
2018-12-15T20:00:24.915Z,0.70
2018-12-15T20:02:52.650Z,0.70
2018-12-15T20:05:20.179Z,0.70
2018-12-15T20:07:47.707Z,0.70
2018-12-15T20:10:15.239Z,0.70
2018-12-15T20:12:42.762Z,0.70
2018-12-15T20:15:10.323Z,0.70
2018-12-15T20:17:37.845Z,0.70
2018-12-15T20:20:05.970Z,0.70
2018-12-15T20:22:33.491Z,0.70
2018-12-15T20:25:00.995Z,0.70
2018-12-15T20:27:28.679Z,0.80
2018-12-15T20:29:56.284Z,0.80
2018-12-15T20:32:23.798Z,0.80
2018-12-15T20:34:51.345Z,0.80
2018-12-15T20:37:18.885Z,0.80
2018-12-15T20:39:46.728Z,0.80
2018-12-15T20:42:14.270Z,0.80
2018-12-15T20:44:42.013Z,0.80
2018-12-15T20:47:09.694Z,0.80
2018-12-15T20:49:37.232Z,0.80
2018-12-15T20:52:04.763Z,0.80
2018-12-15T20:54:32.296Z,0.80
2018-12-15T20:56:59.805Z,0.90
2018-12-15T20:59:27.332Z,0.90
2018-12-15T21:01:54.851Z,0.90
2018-12-15T21:04:22.382Z,0.90
2018-12-15T21:06:49.905Z,0.90
2018-12-15T21:09:17.413Z,0.90
2018-12-15T21:11:44.943Z,0.90
2018-12-15T21:14:12.493Z,0.90
2018-12-15T21:16:40.091Z,0.90
2018-12-15T21:19:07.620Z,0.90
2018-12-15T21:21:35.151Z,0.90
2018-12-15T21:24:02.693Z,0.90
2018-12-15T21:26:30.211Z,0.90
2018-12-15T21:28:57.733Z,0.90
2018-12-15T21:31:25.273Z,0.90
2018-12-15T21:33:52.801Z,0.90
2018-12-15T21:36:20.325Z,0.90
2018-12-15T21:38:47.850Z,0.90
2018-12-15T21:41:15.402Z,0.90
2018-12-15T21:43:42.931Z,0.90
2018-12-15T21:46:10.447Z,0.90
2018-12-15T21:48:38.257Z,0.90
2018-12-15T21:51:05.804Z,0.90
2018-12-15T21:53:33.367Z,0.90
2018-12-15T21:56:00.973Z,0.90
2018-12-15T21:58:28.504Z,0.90
2018-12-15T22:00:56.034Z,0.90
2018-12-15T22:03:23.567Z,0.90
2018-12-15T22:05:51.069Z,0.90
2018-12-15T22:08:18.631Z,0.90
2018-12-15T22:10:46.133Z,0.90
2018-12-15T22:13:13.702Z,0.90
2018-12-15T22:15:41.226Z,0.90
2018-12-15T22:18:08.742Z,0.90
2018-12-15T22:20:36.567Z,0.90
2018-12-15T22:23:04.098Z,0.90
2018-12-15T22:25:31.671Z,1.00
2018-12-15T22:27:59.236Z,1.00
2018-12-15T22:30:26.771Z,1.00
2018-12-15T22:32:54.306Z,1.00
2018-12-15T22:35:21.858Z,1.00
2018-12-15T22:37:49.390Z,1.00
2018-12-15T22:40:16.966Z,1.00
2018-12-15T22:42:44.501Z,1.00
2018-12-15T22:45:12.092Z,1.00
2018-12-15T22:47:39.654Z,1.10
2018-12-15T22:50:07.356Z,1.10
2018-12-15T22:52:35.152Z,1.10
2018-12-15T22:55:02.879Z,1.10
2018-12-15T22:57:30.417Z,1.10
2018-12-15T22:59:57.995Z,1.10
2018-12-15T23:02:25.658Z,1.10
2018-12-15T23:04:53.183Z,1.10
2018-12-15T23:07:20.712Z,1.10
2018-12-15T23:09:48.312Z,1.10
2018-12-15T23:12:15.912Z,1.10
2018-12-15T23:14:43.468Z,1.10
2018-12-15T23:17:10.996Z,1.20
2018-12-15T23:19:38.515Z,1.20
2018-12-15T23:22:06.029Z,1.20
2018-12-15T23:24:33.547Z,1.20
2018-12-15T23:27:01.071Z,1.20
2018-12-15T23:29:28.613Z,1.20
2018-12-15T23:31:56.152Z,1.20
2018-12-15T23:34:23.688Z,1.20
2018-12-15T23:36:51.279Z,1.20
2018-12-15T23:39:18.812Z,1.20
2018-12-15T23:41:46.339Z,1.20
2018-12-15T23:44:13.868Z,1.20
2018-12-15T23:46:41.412Z,1.30
2018-12-15T23:49:08.933Z,1.30
2018-12-15T23:51:36.553Z,1.30
2018-12-15T23:54:04.079Z,1.30
2018-12-15T23:56:31.619Z,1.30
2018-12-15T23:58:59.151Z,1.30
